createdAt,value
2017-06-04T00:00:55.743Z,78.73
2017-06-04T00:01:57.068Z,78.38
2017-06-04T00:02:59.177Z,78.67
2017-06-04T00:04:00.505Z,78.54
2017-06-04T00:05:01.851Z,78.96
2017-06-04T00:06:03.256Z,78.86
2017-06-04T00:07:04.722Z,78.44
2017-06-04T00:08:06.046Z,78.44
2017-06-04T00:09:07.367Z,78.73
2017-06-04T00:10:08.687Z,78.83
2017-06-04T00:11:10.060Z,78.63
2017-06-04T00:12:11.380Z,78.63
2017-06-04T00:13:12.758Z,79.31
2017-06-04T00:14:14.079Z,79.50
2017-06-04T00:15:15.409Z,79.50
2017-06-04T00:16:16.747Z,79.60
2017-06-04T00:17:18.067Z,79.50
2017-06-04T00:18:19.408Z,79.60
2017-06-04T00:19:20.726Z,79.60
2017-06-04T00:20:22.046Z,79.60
2017-06-04T00:21:23.370Z,79.79
2017-06-04T00:22:24.692Z,79.69
2017-06-04T00:23:26.015Z,79.79
2017-06-04T00:24:27.353Z,79.60
2017-06-04T00:25:28.675Z,79.79
2017-06-04T00:26:30.001Z,79.50
2017-06-04T00:27:31.392Z,79.79
2017-06-04T00:28:32.706Z,80.23
2017-06-04T00:29:34.028Z,79.79
2017-06-04T00:30:35.348Z,79.60
2017-06-04T00:31:36.678Z,79.41
2017-06-04T00:32:38.042Z,79.21
2017-06-04T00:33:39.362Z,79.50
2017-06-04T00:34:40.696Z,79.41
2017-06-04T00:35:42.019Z,79.69
2017-06-04T00:36:43.347Z,79.31
2017-06-04T00:37:45.094Z,79.41
2017-06-04T00:38:46.393Z,79.60
2017-06-04T00:39:47.715Z,79.89
2017-06-04T00:40:49.060Z,79.60
2017-06-04T00:41:50.387Z,79.41
2017-06-04T00:42:51.734Z,79.60
2017-06-04T00:43:53.130Z,79.69
2017-06-04T00:44:54.444Z,79.69
2017-06-04T00:45:55.787Z,79.60
2017-06-04T00:47:04.067Z,79.41
2017-06-04T00:48:05.391Z,79.41
2017-06-04T00:49:06.757Z,79.50
2017-06-04T00:50:08.103Z,80.18
2017-06-04T00:51:09.419Z,79.94
2017-06-04T00:52:10.757Z,80.04
2017-06-04T00:53:12.119Z,79.50
2017-06-04T00:54:13.441Z,79.60
2017-06-04T00:55:14.765Z,79.75
2017-06-04T00:56:16.099Z,80.14
2017-06-04T00:57:17.478Z,80.04
2017-06-04T00:58:19.570Z,79.94
2017-06-04T00:59:20.965Z,79.75
2017-06-04T01:00:22.299Z,80.23
2017-06-04T01:01:23.607Z,80.33
2017-06-04T01:02:24.987Z,79.94
2017-06-04T01:03:26.304Z,79.66
2017-06-04T01:04:27.621Z,79.56
2017-06-04T01:05:28.948Z,80.33
2017-06-04T01:06:31.106Z,80.14
2017-06-04T01:07:32.422Z,79.94
2017-06-04T01:08:33.742Z,80.14
2017-06-04T01:09:35.086Z,80.14
2017-06-04T01:10:36.389Z,79.94
2017-06-04T01:11:37.711Z,79.36
2017-06-04T01:12:39.028Z,79.27
2017-06-04T01:13:40.379Z,79.56
2017-06-04T01:14:41.754Z,79.27
2017-06-04T01:15:43.088Z,79.46
2017-06-04T01:16:44.402Z,79.56
2017-06-04T01:17:45.724Z,79.46
2017-06-04T01:18:47.044Z,79.56
2017-06-04T01:19:48.368Z,79.31
2017-06-04T01:20:49.686Z,79.27
2017-06-04T01:21:51.005Z,79.46
2017-06-04T01:22:52.324Z,79.36
2017-06-04T01:23:53.642Z,79.46
2017-06-04T01:24:54.966Z,80.23
2017-06-04T01:25:56.280Z,79.46
2017-06-04T01:26:57.603Z,79.66
2017-06-04T01:27:58.921Z,80.23
2017-06-04T01:29:00.246Z,80.33
2017-06-04T01:30:01.568Z,80.23
2017-06-04T01:31:02.895Z,80.62
2017-06-04T01:32:04.212Z,80.62
2017-06-04T01:33:05.532Z,80.52
2017-06-04T01:34:06.853Z,80.43
2017-06-04T01:35:08.233Z,80.43
2017-06-04T01:36:09.623Z,80.52
2017-06-04T01:37:10.944Z,80.81
2017-06-04T01:38:12.290Z,81.20
2017-06-04T01:39:13.619Z,80.33
2017-06-04T01:40:14.933Z,80.23
2017-06-04T01:41:16.252Z,80.52
2017-06-04T01:42:17.740Z,80.91
2017-06-04T01:43:19.075Z,80.23
2017-06-04T01:44:20.424Z,80.43
2017-06-04T01:45:24.710Z,80.23
2017-06-04T01:46:26.042Z,81.01
2017-06-04T01:47:28.079Z,81.01
2017-06-04T01:48:29.398Z,80.62
2017-06-04T01:49:30.720Z,81.10
2017-06-04T01:50:32.042Z,80.91
2017-06-04T01:51:33.356Z,80.71
2017-06-04T01:52:34.681Z,80.81
2017-06-04T01:53:36.011Z,81.01
2017-06-04T01:54:37.328Z,80.23
2017-06-04T01:55:38.707Z,80.23
2017-06-04T01:56:40.034Z,80.81
2017-06-04T01:57:41.355Z,80.43
2017-06-04T01:58:42.712Z,80.62
2017-06-04T01:59:44.073Z,80.33
2017-06-04T02:00:46.305Z,80.43
2017-06-04T02:01:47.622Z,80.81
2017-06-04T02:02:48.947Z,80.91
2017-06-04T02:03:50.367Z,80.33
2017-06-04T02:04:51.675Z,80.33
2017-06-04T02:05:53.011Z,80.23
2017-06-04T02:06:54.323Z,79.66
2017-06-04T02:07:55.646Z,80.23
2017-06-04T02:08:56.969Z,80.87
2017-06-04T02:09:58.327Z,80.91
2017-06-04T02:10:59.651Z,80.04
2017-06-04T02:12:00.988Z,80.23
2017-06-04T02:13:02.320Z,80.71
2017-06-04T02:14:03.633Z,80.68
2017-06-04T02:15:04.958Z,80.33
2017-06-04T02:16:06.341Z,81.01
2017-06-04T02:17:07.658Z,80.14
2017-06-04T02:18:08.976Z,80.23
2017-06-04T02:19:10.293Z,80.71
2017-06-04T02:20:11.631Z,80.14
2017-06-04T02:21:12.951Z,80.23
2017-06-04T02:22:14.266Z,80.14
2017-06-04T02:23:15.585Z,80.62
2017-06-04T02:24:16.905Z,80.62
2017-06-04T02:25:18.226Z,80.43
2017-06-04T02:26:19.579Z,80.62
2017-06-04T02:27:20.902Z,80.62
2017-06-04T02:28:22.225Z,80.33
2017-06-04T02:29:23.608Z,80.81
2017-06-04T02:30:24.923Z,80.43
2017-06-04T02:31:26.253Z,80.23
2017-06-04T02:32:27.661Z,80.43
2017-06-04T02:33:28.988Z,80.23
2017-06-04T02:34:30.305Z,80.14
2017-06-04T02:35:31.633Z,80.04
2017-06-04T02:36:32.956Z,79.94
2017-06-04T02:37:34.272Z,80.23
2017-06-04T02:38:35.591Z,80.62
2017-06-04T02:39:36.915Z,80.62
2017-06-04T02:40:38.262Z,80.62
2017-06-04T02:41:39.585Z,81.01
2017-06-04T02:42:40.904Z,80.71
2017-06-04T02:43:42.238Z,80.81
2017-06-04T02:44:43.553Z,81.10
2017-06-04T02:45:44.873Z,80.71
2017-06-04T02:46:46.212Z,80.71
2017-06-04T02:47:47.529Z,80.68
2017-06-04T02:48:48.848Z,80.62
2017-06-04T02:49:50.235Z,80.43
2017-06-04T02:50:51.557Z,80.87
2017-06-04T02:51:52.876Z,81.01
2017-06-04T02:52:54.239Z,81.01
2017-06-04T02:53:55.557Z,80.62
2017-06-04T02:54:56.878Z,80.81
2017-06-04T02:55:58.253Z,80.62
2017-06-04T02:56:59.586Z,80.81
2017-06-04T02:58:00.908Z,80.62
2017-06-04T02:59:02.243Z,80.81
2017-06-04T03:00:03.609Z,80.33
2017-06-04T03:01:04.932Z,80.62
2017-06-04T03:02:06.258Z,80.23
2017-06-04T03:03:07.582Z,80.52
2017-06-04T03:04:08.999Z,80.43
2017-06-04T03:05:11.107Z,80.43
2017-06-04T03:06:12.434Z,80.68
2017-06-04T03:07:13.760Z,80.43
2017-06-04T03:08:15.077Z,81.25
2017-06-04T03:09:16.400Z,81.16
2017-06-04T03:10:17.725Z,81.45
2017-06-04T03:11:19.053Z,80.91
2017-06-04T03:12:20.376Z,80.87
2017-06-04T03:13:21.704Z,81.16
2017-06-04T03:14:23.028Z,81.35
2017-06-04T03:15:24.354Z,81.58
2017-06-04T03:16:25.680Z,81.06
2017-06-04T03:17:27.005Z,81.25
2017-06-04T03:18:28.328Z,81.48
2017-06-04T03:19:29.652Z,81.16
2017-06-04T03:20:31.608Z,81.16
2017-06-04T03:21:32.933Z,81.25
2017-06-04T03:22:34.256Z,81.25
2017-06-04T03:23:35.580Z,81.06
2017-06-04T03:24:36.902Z,81.16
2017-06-04T03:25:38.226Z,81.25
2017-06-04T03:26:39.545Z,81.16
2017-06-04T03:27:40.870Z,81.45
2017-06-04T03:28:42.195Z,81.39
2017-06-04T03:29:43.515Z,80.91
2017-06-04T03:30:44.839Z,80.23
2017-06-04T03:31:46.161Z,80.81
2017-06-04T03:32:47.493Z,80.81
2017-06-04T03:33:48.817Z,80.91
2017-06-04T03:34:50.140Z,80.71
2017-06-04T03:35:51.463Z,80.91
2017-06-04T03:36:52.832Z,81.16
2017-06-04T03:37:54.179Z,80.96
2017-06-04T03:38:55.495Z,80.77
2017-06-04T03:39:56.827Z,80.91
2017-06-04T03:40:58.148Z,81.20
2017-06-04T03:41:59.473Z,80.91
2017-06-04T03:43:00.800Z,80.68
2017-06-04T03:44:02.137Z,80.91
2017-06-04T03:45:03.470Z,80.81
2017-06-04T03:46:04.795Z,80.71
2017-06-04T03:47:06.137Z,80.62
2017-06-04T03:48:07.468Z,80.62
2017-06-04T03:49:08.782Z,80.43
2017-06-04T03:50:10.136Z,80.33
2017-06-04T03:51:11.458Z,80.71
2017-06-04T03:52:12.782Z,80.38
2017-06-04T03:53:14.104Z,80.81
2017-06-04T03:54:15.493Z,80.68
2017-06-04T03:55:16.821Z,81.01
2017-06-04T03:56:18.143Z,80.33
2017-06-04T03:57:19.464Z,81.01
2017-06-04T03:58:20.797Z,80.14
2017-06-04T03:59:22.127Z,80.04
2017-06-04T04:00:23.452Z,79.46
2017-06-04T04:01:24.782Z,79.36
2017-06-04T04:02:26.104Z,79.75
2017-06-04T04:03:27.439Z,80.14
2017-06-04T04:04:28.763Z,80.23
2017-06-04T04:05:30.128Z,80.23
2017-06-04T04:06:32.176Z,80.52
2017-06-04T04:07:33.505Z,79.56
2017-06-04T04:08:34.848Z,79.85
2017-06-04T04:09:36.176Z,79.56
2017-06-04T04:10:37.573Z,79.56
2017-06-04T04:11:38.916Z,79.66
2017-06-04T04:12:40.242Z,79.56
2017-06-04T04:13:41.667Z,79.56
2017-06-04T04:14:42.991Z,80.33
2017-06-04T04:15:44.324Z,80.04
2017-06-04T04:16:45.644Z,80.14
2017-06-04T04:17:46.972Z,80.23
2017-06-04T04:18:48.387Z,79.56
2017-06-04T04:19:49.721Z,79.75
2017-06-04T04:20:51.047Z,79.60
2017-06-04T04:21:52.375Z,79.46
2017-06-04T04:22:53.703Z,79.56
2017-06-04T04:23:55.029Z,79.85
2017-06-04T04:24:56.350Z,80.33
2017-06-04T04:25:57.681Z,80.14
2017-06-04T04:26:59.011Z,80.23
2017-06-04T04:28:00.347Z,80.33
2017-06-04T04:29:01.678Z,79.50
2017-06-04T04:30:03.007Z,79.60
2017-06-04T04:31:04.380Z,79.41
2017-06-04T04:32:06.640Z,79.27
2017-06-04T04:33:08.636Z,79.75
2017-06-04T04:34:09.953Z,79.46
2017-06-04T04:35:11.278Z,79.69
2017-06-04T04:36:12.610Z,79.56
2017-06-04T04:37:13.941Z,79.75
2017-06-04T04:38:15.265Z,79.94
2017-06-04T04:39:16.589Z,79.31
2017-06-04T04:40:17.926Z,79.79
2017-06-04T04:41:19.253Z,79.31
2017-06-04T04:42:20.605Z,79.69
2017-06-04T04:43:21.934Z,79.46
2017-06-04T04:44:23.254Z,79.79
2017-06-04T04:45:24.587Z,79.41
2017-06-04T04:46:25.975Z,79.69
2017-06-04T04:47:27.306Z,79.21
2017-06-04T04:48:28.797Z,78.73
2017-06-04T04:49:30.122Z,79.02
2017-06-04T04:50:31.489Z,79.31
2017-06-04T04:51:32.825Z,79.21
2017-06-04T04:52:34.147Z,79.11
2017-06-04T04:53:35.473Z,78.73
2017-06-04T04:54:36.818Z,78.63
2017-06-04T04:55:38.153Z,78.73
2017-06-04T04:56:39.490Z,78.92
2017-06-04T04:57:40.812Z,78.83
2017-06-04T04:58:42.256Z,78.63
2017-06-04T04:59:43.579Z,78.73
2017-06-04T05:00:44.900Z,78.34
2017-06-04T05:01:46.233Z,78.73
2017-06-04T05:02:47.568Z,78.73
2017-06-04T05:03:48.904Z,78.96
2017-06-04T05:04:50.230Z,79.02
2017-06-04T05:05:51.594Z,78.67
2017-06-04T05:06:52.919Z,78.86
2017-06-04T05:07:54.250Z,78.58
2017-06-04T05:08:55.580Z,78.58
2017-06-04T05:09:56.906Z,78.86
2017-06-04T05:10:58.235Z,78.77
2017-06-04T05:11:59.559Z,78.96
2017-06-04T05:13:00.887Z,78.58
2017-06-04T05:14:02.228Z,78.86
2017-06-04T05:15:03.551Z,78.42
2017-06-04T05:16:04.879Z,78.58
2017-06-04T05:17:06.213Z,78.48
2017-06-04T05:18:07.668Z,78.52
2017-06-04T05:19:09.002Z,78.29
2017-06-04T05:20:10.333Z,78.48
2017-06-04T05:21:11.660Z,78.29
2017-06-04T05:22:13.014Z,78.29
2017-06-04T05:23:14.344Z,78.13
2017-06-04T05:24:15.792Z,78.13
2017-06-04T05:25:17.146Z,77.94
2017-06-04T05:26:18.444Z,77.65
2017-06-04T05:27:19.773Z,77.65
2017-06-04T05:28:21.113Z,77.75
2017-06-04T05:29:22.447Z,77.75
2017-06-04T05:30:23.773Z,77.55
2017-06-04T05:31:25.103Z,77.36
2017-06-04T05:32:26.428Z,76.68
2017-06-04T05:33:27.761Z,77.26
2017-06-04T05:34:29.118Z,77.11
2017-06-04T05:35:30.441Z,76.72
2017-06-04T05:36:31.767Z,77.01
2017-06-04T05:37:33.087Z,76.63
2017-06-04T05:38:34.420Z,76.82
2017-06-04T05:39:35.751Z,76.34
2017-06-04T05:40:37.106Z,76.63
2017-06-04T05:41:38.433Z,75.85
2017-06-04T05:42:39.807Z,75.37
2017-06-04T05:43:41.142Z,75.47
2017-06-04T05:44:42.475Z,75.76
2017-06-04T05:45:43.820Z,75.67
2017-06-04T05:46:45.151Z,75.22
2017-06-04T05:47:46.480Z,75.37
2017-06-04T05:48:47.882Z,75.27
2017-06-04T05:49:49.205Z,75.37
2017-06-04T05:50:50.581Z,75.18
2017-06-04T05:51:51.917Z,74.54
2017-06-04T05:52:53.243Z,74.83
2017-06-04T05:53:54.570Z,74.79
2017-06-04T05:54:55.983Z,75.22
2017-06-04T05:55:57.305Z,74.44
2017-06-04T05:56:58.629Z,74.54
2017-06-04T05:57:59.955Z,74.35
2017-06-04T05:59:01.299Z,74.83
2017-06-04T06:00:02.862Z,74.06
2017-06-04T06:01:04.219Z,74.35
2017-06-04T06:02:05.555Z,74.16
2017-06-04T06:03:06.873Z,74.25
2017-06-04T06:04:09.140Z,73.77
2017-06-04T06:05:10.481Z,74.10
2017-06-04T06:06:11.808Z,73.00
2017-06-04T06:07:13.166Z,73.28
2017-06-04T06:08:14.502Z,73.71
2017-06-04T06:09:15.917Z,73.38
2017-06-04T06:10:17.243Z,73.22
2017-06-04T06:11:18.595Z,72.74
2017-06-04T06:12:19.956Z,72.94
2017-06-04T06:13:21.257Z,73.13
2017-06-04T06:14:22.574Z,72.84
2017-06-04T06:15:23.920Z,72.74
2017-06-04T06:16:25.256Z,72.39
2017-06-04T06:17:26.591Z,72.64
2017-06-04T06:18:27.913Z,72.30
2017-06-04T06:19:29.243Z,71.58
2017-06-04T06:20:31.147Z,72.36
2017-06-04T06:21:32.472Z,72.26
2017-06-04T06:22:33.804Z,72.55
2017-06-04T06:23:35.136Z,72.36
2017-06-04T06:24:36.457Z,72.20
2017-06-04T06:25:37.790Z,72.10
2017-06-04T06:26:39.121Z,72.30
2017-06-04T06:27:40.448Z,72.00
2017-06-04T06:28:41.773Z,72.20
2017-06-04T06:29:43.101Z,71.91
2017-06-04T06:30:44.427Z,71.81
2017-06-04T06:31:45.759Z,71.36
2017-06-04T06:32:47.149Z,70.88
2017-06-04T06:33:48.476Z,70.98
2017-06-04T06:34:49.844Z,70.30
2017-06-04T06:35:51.180Z,70.50
2017-06-04T06:36:52.516Z,70.20
2017-06-04T06:37:53.921Z,70.20
2017-06-04T06:38:55.240Z,70.30
2017-06-04T06:39:56.569Z,69.24
2017-06-04T06:40:57.958Z,69.53
2017-06-04T06:41:59.287Z,69.72
2017-06-04T06:43:00.613Z,69.43
2017-06-04T06:44:01.954Z,69.62
2017-06-04T06:45:03.282Z,69.46
2017-06-04T06:46:04.658Z,69.43
2017-06-04T06:47:06.008Z,69.37
2017-06-04T06:48:07.342Z,69.37
2017-06-04T06:49:08.662Z,69.46
2017-06-04T06:50:09.996Z,69.66
2017-06-04T06:51:11.325Z,69.72
2017-06-04T06:52:12.653Z,69.56
2017-06-04T06:53:13.982Z,69.08
2017-06-04T06:54:15.309Z,68.88
2017-06-04T06:55:16.640Z,68.79
2017-06-04T06:56:17.969Z,68.11
2017-06-04T06:57:19.291Z,68.40
2017-06-04T06:58:20.623Z,68.30
2017-06-04T06:59:21.981Z,68.01
2017-06-04T07:00:23.321Z,67.91
2017-06-04T07:01:24.748Z,68.11
2017-06-04T07:02:26.070Z,68.88
2017-06-04T07:03:27.405Z,68.88
2017-06-04T07:04:28.742Z,68.01
2017-06-04T07:05:30.650Z,67.91
2017-06-04T07:06:32.010Z,67.91
2017-06-04T07:07:33.345Z,68.40
2017-06-04T07:08:34.672Z,68.33
2017-06-04T07:09:36.062Z,68.53
2017-06-04T07:10:37.402Z,68.33
2017-06-04T07:11:38.717Z,68.33
2017-06-04T07:12:40.049Z,68.53
2017-06-04T07:13:41.377Z,67.46
2017-06-04T07:14:42.703Z,67.37
2017-06-04T07:15:44.032Z,67.56
2017-06-04T07:16:45.364Z,67.46
2017-06-04T07:17:46.704Z,67.40
2017-06-04T07:18:48.034Z,67.50
2017-06-04T07:19:49.358Z,67.50
2017-06-04T07:20:50.709Z,67.02
2017-06-04T07:21:52.045Z,67.11
2017-06-04T07:22:53.370Z,66.82
2017-06-04T07:23:54.700Z,66.43
2017-06-04T07:24:56.031Z,66.05
2017-06-04T07:25:57.353Z,65.85
2017-06-04T07:26:58.778Z,65.17
2017-06-04T07:28:00.111Z,65.17
2017-06-04T07:29:01.432Z,65.20
2017-06-04T07:30:02.766Z,65.20
2017-06-04T07:31:04.183Z,65.79
2017-06-04T07:32:05.510Z,65.89
2017-06-04T07:33:06.864Z,65.20
2017-06-04T07:34:08.167Z,65.30
2017-06-04T07:35:09.499Z,65.01
2017-06-04T07:36:10.857Z,65.30
2017-06-04T07:37:12.194Z,65.20
2017-06-04T07:38:13.524Z,63.85
2017-06-04T07:39:14.879Z,63.49
2017-06-04T07:40:16.248Z,63.30
2017-06-04T07:41:17.598Z,64.07
2017-06-04T07:42:21.546Z,63.59
2017-06-04T07:43:22.887Z,63.30
2017-06-04T07:44:24.216Z,63.01
2017-06-04T07:45:25.545Z,62.91
2017-06-04T07:46:26.886Z,63.01
2017-06-04T07:47:28.268Z,63.20
2017-06-04T07:48:29.632Z,62.91
2017-06-04T07:49:30.952Z,62.55
2017-06-04T07:50:32.306Z,62.55
2017-06-04T07:51:33.633Z,62.16
2017-06-04T07:52:34.968Z,61.65
2017-06-04T07:53:36.302Z,61.49
2017-06-04T07:54:37.646Z,61.49
2017-06-04T07:55:38.983Z,61.29
2017-06-04T07:56:40.325Z,60.81
2017-06-04T07:57:41.680Z,60.81
2017-06-04T07:58:42.999Z,60.23
2017-06-04T07:59:44.337Z,60.03
2017-06-04T08:00:45.664Z,59.55
2017-06-04T08:01:46.988Z,59.36
2017-06-04T08:02:48.329Z,59.58
2017-06-04T08:03:49.664Z,59.28
2017-06-04T08:04:51.008Z,58.87
2017-06-04T08:05:52.338Z,58.80
2017-06-04T08:06:53.679Z,58.41
2017-06-04T08:07:55.014Z,58.41
2017-06-04T08:08:56.345Z,58.31
2017-06-04T08:09:57.683Z,58.12
2017-06-04T08:10:59.064Z,57.34
2017-06-04T08:12:00.401Z,57.44
2017-06-04T08:13:01.797Z,57.44
2017-06-04T08:14:03.401Z,57.15
2017-06-04T08:15:04.714Z,57.15
2017-06-04T08:16:06.039Z,56.96
2017-06-04T08:17:07.371Z,56.60
2017-06-04T08:18:08.691Z,56.70
2017-06-04T08:19:10.017Z,56.79
2017-06-04T08:20:11.346Z,57.18
2017-06-04T08:21:12.682Z,57.28
2017-06-04T08:22:14.051Z,56.98
2017-06-04T08:23:16.171Z,57.28
2017-06-04T08:24:17.523Z,57.37
2017-06-04T08:25:18.848Z,57.28
2017-06-04T08:26:22.680Z,57.47
2017-06-04T08:27:23.998Z,57.37
2017-06-04T08:28:25.333Z,58.34
2017-06-04T08:29:26.662Z,57.76
2017-06-04T08:30:27.985Z,57.69
2017-06-04T08:31:29.324Z,57.47
2017-06-04T08:32:31.186Z,57.57
2017-06-04T08:33:32.508Z,57.47
2017-06-04T08:34:33.839Z,57.50
2017-06-04T08:35:35.172Z,57.40
2017-06-04T08:36:36.497Z,57.57
2017-06-04T08:37:37.838Z,57.89
2017-06-04T08:38:39.165Z,58.08
2017-06-04T08:39:40.495Z,58.18
2017-06-04T08:40:41.830Z,58.37
2017-06-04T08:41:43.170Z,58.37
2017-06-04T08:42:44.509Z,58.57
2017-06-04T08:43:45.837Z,58.86
2017-06-04T08:44:47.175Z,58.47
2017-06-04T08:45:48.551Z,58.57
2017-06-04T08:46:49.884Z,58.86
2017-06-04T08:47:51.224Z,58.57
2017-06-04T08:48:52.549Z,58.57
2017-06-04T08:49:53.920Z,58.59
2017-06-04T08:50:55.284Z,58.69
2017-06-04T08:51:56.613Z,58.40
2017-06-04T08:52:57.953Z,58.50
2017-06-04T08:53:59.303Z,58.50
2017-06-04T08:55:00.651Z,58.67
2017-06-04T08:56:01.993Z,59.54
2017-06-04T08:57:03.312Z,59.64
2017-06-04T08:58:05.194Z,59.54
2017-06-04T08:59:06.523Z,59.76
2017-06-04T09:00:07.929Z,59.08
2017-06-04T09:01:09.334Z,59.15
2017-06-04T09:02:10.675Z,59.83
2017-06-04T09:03:12.073Z,60.31
2017-06-04T09:04:13.399Z,59.54
2017-06-04T09:05:14.730Z,59.34
2017-06-04T09:06:16.066Z,58.57
2017-06-04T09:07:17.401Z,58.47
2017-06-04T09:08:18.744Z,58.25
2017-06-04T09:09:20.116Z,58.25
2017-06-04T09:10:21.501Z,57.98
2017-06-04T09:11:22.853Z,57.31
2017-06-04T09:12:24.220Z,57.69
2017-06-04T09:13:25.545Z,57.89
2017-06-04T09:14:26.907Z,58.08
2017-06-04T09:15:28.241Z,58.47
2017-06-04T09:16:29.585Z,58.47
2017-06-04T09:17:31.077Z,58.18
2017-06-04T09:18:32.386Z,58.28
2017-06-04T09:19:33.721Z,58.28
2017-06-04T09:20:35.059Z,57.50
2017-06-04T09:21:36.390Z,57.53
2017-06-04T09:22:37.722Z,57.53
2017-06-04T09:23:39.733Z,58.31
2017-06-04T09:24:41.164Z,58.18
2017-06-04T09:25:42.496Z,58.01
2017-06-04T09:26:43.833Z,57.82
2017-06-04T09:27:45.175Z,57.23
2017-06-04T09:28:46.550Z,56.95
2017-06-04T09:29:48.693Z,56.85
2017-06-04T09:30:50.058Z,57.14
2017-06-04T09:31:51.386Z,56.77
2017-06-04T09:32:52.726Z,56.68
2017-06-04T09:33:54.054Z,57.14
2017-06-04T09:34:55.382Z,56.77
2017-06-04T09:35:56.717Z,56.59
2017-06-04T09:36:58.055Z,56.68
2017-06-04T09:37:59.436Z,55.90
2017-06-04T09:39:00.765Z,55.39
2017-06-04T09:40:02.092Z,55.41
2017-06-04T09:41:03.423Z,55.58
2017-06-04T09:42:04.759Z,55.68
2017-06-04T09:43:06.081Z,55.88
2017-06-04T09:44:07.408Z,55.80
2017-06-04T09:45:08.758Z,56.00
2017-06-04T09:46:10.096Z,56.36
2017-06-04T09:47:11.444Z,56.65
2017-06-04T09:48:12.778Z,55.71
2017-06-04T09:49:14.183Z,55.41
2017-06-04T09:50:15.515Z,54.54
2017-06-04T09:51:16.849Z,55.00
2017-06-04T09:52:18.184Z,54.64
2017-06-04T09:53:19.517Z,53.86
2017-06-04T09:54:20.878Z,53.77
2017-06-04T09:55:22.271Z,54.05
2017-06-04T09:56:23.626Z,53.96
2017-06-04T09:57:24.955Z,53.89
2017-06-04T09:58:26.290Z,53.99
2017-06-04T09:59:27.621Z,53.01
2017-06-04T10:00:28.953Z,53.11
2017-06-04T10:01:30.291Z,52.92
2017-06-04T10:02:31.633Z,53.01
2017-06-04T10:03:32.975Z,54.08
2017-06-04T10:04:34.341Z,53.14
2017-06-04T10:05:35.695Z,53.04
2017-06-04T10:06:37.025Z,53.14
2017-06-04T10:07:38.354Z,53.30
2017-06-04T10:08:39.679Z,53.79
2017-06-04T10:09:41.009Z,53.96
2017-06-04T10:10:42.348Z,53.86
2017-06-04T10:11:43.691Z,54.42
2017-06-04T10:12:45.031Z,54.44
2017-06-04T10:13:46.357Z,53.64
2017-06-04T10:14:47.685Z,53.54
2017-06-04T10:15:49.014Z,53.16
2017-06-04T10:16:50.345Z,52.79
2017-06-04T10:17:51.688Z,52.98
2017-06-04T10:18:53.026Z,52.47
2017-06-04T10:19:54.369Z,53.08
2017-06-04T10:20:55.708Z,52.31
2017-06-04T10:21:57.045Z,51.92
2017-06-04T10:22:58.375Z,52.04
2017-06-04T10:23:59.725Z,51.75
2017-06-04T10:25:01.075Z,52.11
2017-06-04T10:26:02.415Z,52.01
2017-06-04T10:27:03.776Z,51.43
2017-06-04T10:28:05.113Z,50.68
2017-06-04T10:29:06.441Z,50.68
2017-06-04T10:30:07.785Z,50.75
2017-06-04T10:31:09.133Z,50.85
2017-06-04T10:32:10.537Z,51.72
2017-06-04T10:33:11.948Z,51.82
2017-06-04T10:34:13.288Z,51.92
2017-06-04T10:35:14.751Z,51.82
2017-06-04T10:36:16.089Z,52.69
2017-06-04T10:37:17.436Z,52.76
2017-06-04T10:38:18.833Z,53.83
2017-06-04T10:39:20.146Z,53.83
2017-06-04T10:40:21.487Z,53.54
2017-06-04T10:41:22.869Z,53.74
2017-06-04T10:42:24.203Z,54.03
2017-06-04T10:43:25.533Z,53.93
2017-06-04T10:44:26.874Z,53.93
2017-06-04T10:45:28.205Z,54.61
2017-06-04T10:46:29.540Z,55.07
2017-06-04T10:47:30.893Z,55.10
2017-06-04T10:48:32.230Z,55.75
2017-06-04T10:49:33.562Z,56.40
2017-06-04T10:50:35.022Z,56.62
2017-06-04T10:51:36.365Z,56.62
2017-06-04T10:52:37.693Z,56.34
2017-06-04T10:53:39.051Z,56.14
2017-06-04T10:54:40.379Z,56.62
2017-06-04T10:55:41.723Z,56.82
2017-06-04T10:56:43.090Z,57.67
2017-06-04T10:57:44.436Z,57.37
2017-06-04T10:58:45.760Z,57.08
2017-06-04T10:59:47.096Z,57.67
2017-06-04T11:00:48.423Z,58.12
2017-06-04T11:01:49.752Z,58.05
2017-06-04T11:02:51.117Z,58.15
2017-06-04T11:03:52.441Z,58.15
2017-06-04T11:04:53.783Z,58.22
2017-06-04T11:05:55.116Z,58.31
2017-06-04T11:06:56.482Z,58.22
2017-06-04T11:07:57.812Z,57.54
2017-06-04T11:08:59.145Z,57.37
2017-06-04T11:10:00.474Z,56.89
2017-06-04T11:11:01.807Z,56.79
2017-06-04T11:12:03.132Z,56.86
2017-06-04T11:13:04.463Z,56.96
2017-06-04T11:14:05.794Z,56.76
2017-06-04T11:15:07.116Z,56.86
2017-06-04T11:16:08.497Z,56.76
2017-06-04T11:17:09.827Z,56.47
2017-06-04T11:18:11.165Z,56.47
2017-06-04T11:19:12.567Z,56.67
2017-06-04T11:20:13.966Z,56.76
2017-06-04T11:21:15.298Z,56.93
2017-06-04T11:22:16.650Z,56.93
2017-06-04T11:23:18.017Z,57.61
2017-06-04T11:24:19.336Z,57.51
2017-06-04T11:25:20.667Z,57.51
2017-06-04T11:26:21.998Z,58.09
2017-06-04T11:27:23.321Z,57.61
2017-06-04T11:28:24.724Z,57.51
2017-06-04T11:29:26.053Z,57.12
2017-06-04T11:30:28.261Z,56.83
2017-06-04T11:31:29.623Z,57.90
2017-06-04T11:32:30.974Z,57.90
2017-06-04T11:33:32.303Z,57.51
2017-06-04T11:34:33.628Z,57.12
2017-06-04T11:35:34.959Z,57.42
2017-06-04T11:36:36.300Z,58.45
2017-06-04T11:37:37.628Z,58.48
2017-06-04T11:38:38.976Z,58.26
2017-06-04T11:39:40.330Z,58.55
2017-06-04T11:40:41.710Z,58.39
2017-06-04T11:41:43.044Z,58.19
2017-06-04T11:42:44.386Z,58.48
2017-06-04T11:43:45.723Z,58.26
2017-06-04T11:44:47.192Z,58.16
2017-06-04T11:45:48.539Z,58.29
2017-06-04T11:46:49.871Z,58.36
2017-06-04T11:47:51.205Z,58.36
2017-06-04T11:48:52.528Z,58.36
2017-06-04T11:49:53.864Z,58.84
2017-06-04T11:50:55.198Z,59.52
2017-06-04T11:51:56.533Z,59.52
2017-06-04T11:52:57.869Z,59.61
2017-06-04T11:53:59.249Z,59.61
2017-06-04T11:55:00.572Z,60.00
2017-06-04T11:56:01.910Z,60.20
2017-06-04T11:57:03.268Z,60.20
2017-06-04T11:58:04.600Z,60.88
2017-06-04T11:59:05.936Z,60.78
2017-06-04T12:00:07.271Z,60.68
2017-06-04T12:01:08.609Z,60.68
2017-06-04T12:02:09.961Z,61.36
2017-06-04T12:03:11.293Z,61.55
2017-06-04T12:04:12.624Z,61.55
2017-06-04T12:05:13.961Z,61.72
2017-06-04T12:06:15.309Z,61.52
2017-06-04T12:07:16.646Z,61.91
2017-06-04T12:08:18.032Z,60.97
2017-06-04T12:09:19.360Z,61.65
2017-06-04T12:10:20.704Z,61.24
2017-06-04T12:11:22.047Z,61.14
2017-06-04T12:12:23.372Z,60.68
2017-06-04T12:13:24.695Z,60.58
2017-06-04T12:14:26.066Z,60.85
2017-06-04T12:15:27.392Z,59.97
2017-06-04T12:16:28.711Z,59.81
2017-06-04T12:17:30.126Z,59.42
2017-06-04T12:18:31.459Z,59.13
2017-06-04T12:19:32.790Z,58.45
2017-06-04T12:20:34.123Z,58.45
2017-06-04T12:21:35.508Z,58.36
2017-06-04T12:22:36.849Z,56.97
2017-06-04T12:23:38.172Z,55.42
2017-06-04T12:24:39.499Z,55.13
2017-06-04T12:25:40.850Z,54.94
2017-06-04T12:26:42.189Z,54.55
2017-06-04T12:27:43.597Z,54.45
2017-06-04T12:28:44.919Z,54.45
2017-06-04T12:29:46.256Z,54.16
2017-06-04T12:30:47.601Z,54.26
2017-06-04T12:31:48.939Z,54.06
2017-06-04T12:32:50.284Z,53.67
2017-06-04T12:33:51.615Z,53.77
2017-06-04T12:34:52.991Z,54.45
2017-06-04T12:35:54.363Z,54.55
2017-06-04T12:36:55.693Z,54.74
2017-06-04T12:37:57.050Z,55.22
2017-06-04T12:38:59.032Z,55.04
2017-06-04T12:40:00.353Z,54.94
2017-06-04T12:41:01.684Z,55.32
2017-06-04T12:42:03.037Z,55.81
2017-06-04T12:43:04.375Z,56.39
2017-06-04T12:44:05.705Z,55.98
2017-06-04T12:45:07.033Z,55.68
2017-06-04T12:46:08.404Z,56.36
2017-06-04T12:47:09.728Z,57.04
2017-06-04T12:48:11.059Z,61.08
2017-06-04T12:49:12.382Z,58.95
2017-06-04T12:50:13.720Z,58.37
2017-06-04T12:51:15.054Z,58.07
2017-06-04T12:52:16.379Z,58.47
2017-06-04T12:53:17.710Z,57.98
2017-06-04T12:54:19.036Z,58.47
2017-06-04T12:55:20.454Z,57.98
2017-06-04T12:56:21.761Z,57.98
2017-06-04T12:57:23.094Z,58.07
2017-06-04T12:58:24.483Z,58.07
2017-06-04T12:59:25.809Z,58.37
2017-06-04T13:00:27.137Z,57.79
2017-06-04T13:01:28.487Z,57.50
2017-06-04T13:02:29.818Z,57.11
2017-06-04T13:03:31.166Z,56.43
2017-06-04T13:04:32.494Z,56.43
2017-06-04T13:05:33.827Z,56.43
2017-06-04T13:06:35.290Z,56.34
2017-06-04T13:07:36.636Z,56.52
2017-06-04T13:08:37.967Z,56.62
2017-06-04T13:09:39.294Z,56.52
2017-06-04T13:10:40.638Z,56.62